sensor_id;sensor_type;location;lat;lon;timestamp;P1;durP1;ratioP1;P2;durP2;ratioP2
74833;SDS011;63361;52.384;20.930;2024-02-28T00:00:26;73.90;;;33.37;;
74833;SDS011;63361;52.384;20.930;2024-02-28T00:02:51;81.10;;;35.27;;
74833;SDS011;63361;52.384;20.930;2024-02-28T00:05:16;72.70;;;35.30;;
74833;SDS011;63361;52.384;20.930;2024-02-28T00:07:41;82.97;;;37.93;;
74833;SDS011;63361;52.384;20.930;2024-02-28T00:10:07;87.53;;;41.03;;
74833;SDS011;63361;52.384;20.930;2024-02-28T00:12:32;90.10;;;41.27;;
74833;SDS011;63361;52.384;20.930;2024-02-28T00:14:59;86.85;;;41.30;;
74833;SDS011;63361;52.384;20.930;2024-02-28T00:17:24;90.23;;;39.87;;
74833;SDS011;63361;52.384;20.930;2024-02-28T00:19:49;84.30;;;39.27;;
74833;SDS011;63361;52.384;20.930;2024-02-28T00:22:14;88.83;;;41.83;;
74833;SDS011;63361;52.384;20.930;2024-02-28T00:24:40;78.43;;;40.40;;
74833;SDS011;63361;52.384;20.930;2024-02-28T00:27:05;80.37;;;41.20;;
74833;SDS011;63361;52.384;20.930;2024-02-28T00:29:30;83.63;;;40.80;;
74833;SDS011;63361;52.384;20.930;2024-02-28T00:31:56;81.87;;;37.73;;
74833;SDS011;63361;52.384;20.930;2024-02-28T00:34:21;84.00;;;39.17;;
74833;SDS011;63361;52.384;20.930;2024-02-28T00:36:46;84.83;;;40.87;;
74833;SDS011;63361;52.384;20.930;2024-02-28T00:39:11;83.27;;;41.30;;
74833;SDS011;63361;52.384;20.930;2024-02-28T00:41:37;79.40;;;37.90;;
74833;SDS011;63361;52.384;20.930;2024-02-28T00:44:02;77.30;;;38.70;;
74833;SDS011;63361;52.384;20.930;2024-02-28T00:46:28;79.47;;;39.15;;
74833;SDS011;63361;52.384;20.930;2024-02-28T00:48:53;83.90;;;38.57;;
74833;SDS011;63361;52.384;20.930;2024-02-28T00:51:18;86.20;;;41.80;;
74833;SDS011;63361;52.384;20.930;2024-02-28T00:53:43;79.53;;;38.50;;
74833;SDS011;63361;52.384;20.930;2024-02-28T00:56:09;86.37;;;42.00;;
74833;SDS011;63361;52.384;20.930;2024-02-28T00:58:34;87.27;;;40.83;;
74833;SDS011;63361;52.384;20.930;2024-02-28T01:00:59;82.63;;;41.40;;
74833;SDS011;63361;52.384;20.930;2024-02-28T01:03:24;88.40;;;42.43;;
74833;SDS011;63361;52.384;20.930;2024-02-28T01:05:49;90.03;;;42.03;;
74833;SDS011;63361;52.384;20.930;2024-02-28T01:08:15;88.90;;;42.13;;
74833;SDS011;63361;52.384;20.930;2024-02-28T01:10:42;93.80;;;42.07;;
74833;SDS011;63361;52.384;20.930;2024-02-28T01:13:08;85.88;;;42.45;;
74833;SDS011;63361;52.384;20.930;2024-02-28T01:15:33;80.87;;;39.53;;
74833;SDS011;63361;52.384;20.930;2024-02-28T01:17:58;84.53;;;39.90;;
74833;SDS011;63361;52.384;20.930;2024-02-28T01:20:23;87.20;;;42.47;;
74833;SDS011;63361;52.384;20.930;2024-02-28T01:22:48;93.23;;;43.03;;
74833;SDS011;63361;52.384;20.930;2024-02-28T01:25:14;98.60;;;49.43;;
74833;SDS011;63361;52.384;20.930;2024-02-28T01:27:39;98.03;;;45.77;;
74833;SDS011;63361;52.384;20.930;2024-02-28T01:30:04;91.67;;;44.70;;
74833;SDS011;63361;52.384;20.930;2024-02-28T01:32:30;96.18;;;44.47;;
74833;SDS011;63361;52.384;20.930;2024-02-28T01:34:55;90.90;;;41.80;;
74833;SDS011;63361;52.384;20.930;2024-02-28T01:37:21;105.37;;;45.90;;
74833;SDS011;63361;52.384;20.930;2024-02-28T01:39:46;91.27;;;43.03;;
74833;SDS011;63361;52.384;20.930;2024-02-28T01:42:11;95.00;;;40.20;;
74833;SDS011;63361;52.384;20.930;2024-02-28T01:44:38;84.20;;;38.83;;
74833;SDS011;63361;52.384;20.930;2024-02-28T01:47:06;82.23;;;38.90;;
74833;SDS011;63361;52.384;20.930;2024-02-28T01:49:31;103.15;;;51.00;;
74833;SDS011;63361;52.384;20.930;2024-02-28T01:51:57;83.83;;;42.07;;
74833;SDS011;63361;52.384;20.930;2024-02-28T01:54:22;95.13;;;43.50;;
74833;SDS011;63361;52.384;20.930;2024-02-28T01:56:47;83.57;;;39.17;;
74833;SDS011;63361;52.384;20.930;2024-02-28T01:59:13;84.13;;;39.37;;
74833;SDS011;63361;52.384;20.930;2024-02-28T02:01:38;87.53;;;39.47;;
74833;SDS011;63361;52.384;20.930;2024-02-28T02:04:03;83.53;;;38.57;;
74833;SDS011;63361;52.384;20.930;2024-02-28T02:06:28;80.50;;;37.57;;
74833;SDS011;63361;52.384;20.930;2024-02-28T02:08:54;77.33;;;37.63;;
74833;SDS011;63361;52.384;20.930;2024-02-28T02:11:19;77.37;;;37.73;;
74833;SDS011;63361;52.384;20.930;2024-02-28T02:13:52;79.45;;;36.85;;
74833;SDS011;63361;52.384;20.930;2024-02-28T02:16:20;87.45;;;42.45;;
74833;SDS011;63361;52.384;20.930;2024-02-28T02:18:51;88.37;;;43.50;;
74833;SDS011;63361;52.384;20.930;2024-02-28T02:21:17;82.47;;;39.70;;
74833;SDS011;63361;52.384;20.930;2024-02-28T02:23:43;85.47;;;42.40;;
74833;SDS011;63361;52.384;20.930;2024-02-28T02:26:08;84.17;;;40.63;;
74833;SDS011;63361;52.384;20.930;2024-02-28T02:28:33;80.40;;;39.37;;
74833;SDS011;63361;52.384;20.930;2024-02-28T02:30:58;74.13;;;37.83;;
74833;SDS011;63361;52.384;20.930;2024-02-28T02:33:24;78.07;;;37.53;;
74833;SDS011;63361;52.384;20.930;2024-02-28T02:35:49;75.37;;;36.47;;
74833;SDS011;63361;52.384;20.930;2024-02-28T02:38:14;76.50;;;36.27;;
74833;SDS011;63361;52.384;20.930;2024-02-28T02:40:39;74.67;;;36.13;;
74833;SDS011;63361;52.384;20.930;2024-02-28T02:43:05;84.60;;;36.50;;
74833;SDS011;63361;52.384;20.930;2024-02-28T02:45:30;73.00;;;35.37;;
74833;SDS011;63361;52.384;20.930;2024-02-28T02:47:55;72.37;;;34.70;;
74833;SDS011;63361;52.384;20.930;2024-02-28T02:50:21;80.77;;;36.33;;
74833;SDS011;63361;52.384;20.930;2024-02-28T02:52:46;79.47;;;36.67;;
74833;SDS011;63361;52.384;20.930;2024-02-28T02:55:11;74.90;;;35.73;;
74833;SDS011;63361;52.384;20.930;2024-02-28T02:57:36;74.10;;;34.47;;
74833;SDS011;63361;52.384;20.930;2024-02-28T03:00:04;66.30;;;33.75;;
74833;SDS011;63361;52.384;20.930;2024-02-28T03:02:33;73.95;;;35.63;;
74833;SDS011;63361;52.384;20.930;2024-02-28T03:04:58;62.00;;;33.07;;
74833;SDS011;63361;52.384;20.930;2024-02-28T03:07:23;75.73;;;34.17;;
74833;SDS011;63361;52.384;20.930;2024-02-28T03:09:48;70.93;;;35.93;;
74833;SDS011;63361;52.384;20.930;2024-02-28T03:12:13;81.20;;;38.20;;
74833;SDS011;63361;52.384;20.930;2024-02-28T03:14:39;72.93;;;36.30;;
74833;SDS011;63361;52.384;20.930;2024-02-28T03:17:04;75.57;;;36.83;;
74833;SDS011;63361;52.384;20.930;2024-02-28T03:19:29;80.87;;;36.90;;
74833;SDS011;63361;52.384;20.930;2024-02-28T03:21:54;71.63;;;35.43;;
74833;SDS011;63361;52.384;20.930;2024-02-28T03:24:19;72.50;;;35.70;;
74833;SDS011;63361;52.384;20.930;2024-02-28T03:26:45;72.17;;;35.13;;
74833;SDS011;63361;52.384;20.930;2024-02-28T03:29:10;75.83;;;34.47;;
74833;SDS011;63361;52.384;20.930;2024-02-28T03:31:35;73.00;;;36.47;;
74833;SDS011;63361;52.384;20.930;2024-02-28T03:34:00;76.77;;;36.03;;
74833;SDS011;63361;52.384;20.930;2024-02-28T03:36:27;78.10;;;38.30;;
74833;SDS011;63361;52.384;20.930;2024-02-28T03:38:52;79.85;;;37.92;;
74833;SDS011;63361;52.384;20.930;2024-02-28T03:41:17;115.47;;;49.27;;
74833;SDS011;63361;52.384;20.930;2024-02-28T03:43:43;96.00;;;43.40;;
74833;SDS011;63361;52.384;20.930;2024-02-28T03:46:08;96.57;;;41.30;;
74833;SDS011;63361;52.384;20.930;2024-02-28T03:48:34;91.43;;;40.22;;
74833;SDS011;63361;52.384;20.930;2024-02-28T03:50:59;89.50;;;39.73;;
74833;SDS011;63361;52.384;20.930;2024-02-28T03:53:24;91.50;;;40.10;;
74833;SDS011;63361;52.384;20.930;2024-02-28T03:55:50;89.53;;;40.33;;
74833;SDS011;63361;52.384;20.930;2024-02-28T03:58:15;79.77;;;38.33;;
74833;SDS011;63361;52.384;20.930;2024-02-28T04:00:40;79.93;;;36.60;;
74833;SDS011;63361;52.384;20.930;2024-02-28T04:03:05;75.63;;;37.90;;
74833;SDS011;63361;52.384;20.930;2024-02-28T04:05:30;84.13;;;38.50;;
74833;SDS011;63361;52.384;20.930;2024-02-28T04:07:56;87.97;;;38.83;;
74833;SDS011;63361;52.384;20.930;2024-02-28T04:10:21;85.13;;;37.37;;
74833;SDS011;63361;52.384;20.930;2024-02-28T04:12:46;87.43;;;38.60;;
74833;SDS011;63361;52.384;20.930;2024-02-28T04:15:12;85.03;;;36.13;;
74833;SDS011;63361;52.384;20.930;2024-02-28T04:17:40;83.72;;;39.35;;
74833;SDS011;63361;52.384;20.930;2024-02-28T04:20:11;82.03;;;38.27;;
74833;SDS011;63361;52.384;20.930;2024-02-28T04:22:37;86.18;;;38.65;;
74833;SDS011;63361;52.384;20.930;2024-02-28T04:25:03;87.83;;;39.43;;
74833;SDS011;63361;52.384;20.930;2024-02-28T04:27:28;89.22;;;38.95;;
74833;SDS011;63361;52.384;20.930;2024-02-28T04:29:54;84.50;;;37.67;;
74833;SDS011;63361;52.384;20.930;2024-02-28T04:32:19;82.03;;;37.13;;
74833;SDS011;63361;52.384;20.930;2024-02-28T04:34:44;84.10;;;36.23;;
74833;SDS011;63361;52.384;20.930;2024-02-28T04:37:10;87.23;;;36.97;;
74833;SDS011;63361;52.384;20.930;2024-02-28T04:39:36;70.40;;;34.50;;
74833;SDS011;63361;52.384;20.930;2024-02-28T04:42:01;75.80;;;37.27;;
74833;SDS011;63361;52.384;20.930;2024-02-28T04:44:27;85.05;;;37.40;;
74833;SDS011;63361;52.384;20.930;2024-02-28T04:46:52;85.03;;;36.33;;
74833;SDS011;63361;52.384;20.930;2024-02-28T04:49:17;84.73;;;37.83;;
74833;SDS011;63361;52.384;20.930;2024-02-28T04:51:42;104.43;;;40.07;;
74833;SDS011;63361;52.384;20.930;2024-02-28T04:54:08;95.20;;;37.90;;
74833;SDS011;63361;52.384;20.930;2024-02-28T04:56:38;128.07;;;48.43;;
74833;SDS011;63361;52.384;20.930;2024-02-28T04:59:04;149.35;;;44.10;;
74833;SDS011;63361;52.384;20.930;2024-02-28T05:01:29;109.30;;;41.70;;
74833;SDS011;63361;52.384;20.930;2024-02-28T05:03:54;96.55;;;37.83;;
74833;SDS011;63361;52.384;20.930;2024-02-28T05:06:20;88.73;;;36.00;;
74833;SDS011;63361;52.384;20.930;2024-02-28T05:08:45;86.73;;;35.17;;
74833;SDS011;63361;52.384;20.930;2024-02-28T05:11:10;91.43;;;35.50;;
74833;SDS011;63361;52.384;20.930;2024-02-28T05:13:36;111.80;;;46.47;;
74833;SDS011;63361;52.384;20.930;2024-02-28T05:16:01;142.60;;;50.60;;
74833;SDS011;63361;52.384;20.930;2024-02-28T05:18:26;154.50;;;56.53;;
74833;SDS011;63361;52.384;20.930;2024-02-28T05:20:51;123.93;;;47.60;;
74833;SDS011;63361;52.384;20.930;2024-02-28T05:23:16;92.50;;;37.37;;
74833;SDS011;63361;52.384;20.930;2024-02-28T05:25:42;97.83;;;36.27;;
74833;SDS011;63361;52.384;20.930;2024-02-28T05:28:07;72.33;;;32.27;;
74833;SDS011;63361;52.384;20.930;2024-02-28T05:30:32;71.07;;;32.23;;
74833;SDS011;63361;52.384;20.930;2024-02-28T05:32:57;78.07;;;35.13;;
74833;SDS011;63361;52.384;20.930;2024-02-28T05:35:23;80.78;;;34.40;;
74833;SDS011;63361;52.384;20.930;2024-02-28T05:37:52;61.23;;;31.90;;
74833;SDS011;63361;52.384;20.930;2024-02-28T05:40:18;77.90;;;33.93;;
74833;SDS011;63361;52.384;20.930;2024-02-28T05:42:43;69.03;;;34.53;;
74833;SDS011;63361;52.384;20.930;2024-02-28T05:45:08;69.27;;;34.00;;
74833;SDS011;63361;52.384;20.930;2024-02-28T05:47:33;71.37;;;32.83;;
74833;SDS011;63361;52.384;20.930;2024-02-28T05:49:59;70.30;;;31.87;;
74833;SDS011;63361;52.384;20.930;2024-02-28T05:52:24;66.43;;;32.43;;
74833;SDS011;63361;52.384;20.930;2024-02-28T05:54:52;64.30;;;30.40;;
74833;SDS011;63361;52.384;20.930;2024-02-28T05:57:17;63.67;;;29.90;;
74833;SDS011;63361;52.384;20.930;2024-02-28T05:59:43;61.97;;;30.07;;
74833;SDS011;63361;52.384;20.930;2024-02-28T06:02:08;65.23;;;30.67;;
74833;SDS011;63361;52.384;20.930;2024-02-28T06:04:33;64.40;;;32.37;;
74833;SDS011;63361;52.384;20.930;2024-02-28T06:06:58;68.47;;;33.73;;
74833;SDS011;63361;52.384;20.930;2024-02-28T06:09:24;66.70;;;31.43;;
74833;SDS011;63361;52.384;20.930;2024-02-28T06:11:49;77.30;;;38.90;;
74833;SDS011;63361;52.384;20.930;2024-02-28T06:14:14;75.60;;;34.57;;
74833;SDS011;63361;52.384;20.930;2024-02-28T06:16:39;73.23;;;34.37;;
74833;SDS011;63361;52.384;20.930;2024-02-28T06:19:05;76.10;;;35.87;;
74833;SDS011;63361;52.384;20.930;2024-02-28T06:21:30;104.50;;;47.30;;
74833;SDS011;63361;52.384;20.930;2024-02-28T06:23:55;113.17;;;50.67;;
74833;SDS011;63361;52.384;20.930;2024-02-28T06:26:20;99.97;;;45.03;;
74833;SDS011;63361;52.384;20.930;2024-02-28T06:28:46;87.13;;;38.50;;
74833;SDS011;63361;52.384;20.930;2024-02-28T06:31:17;79.03;;;37.57;;
74833;SDS011;63361;52.384;20.930;2024-02-28T06:33:43;86.80;;;38.20;;
74833;SDS011;63361;52.384;20.930;2024-02-28T06:36:08;95.43;;;40.50;;
74833;SDS011;63361;52.384;20.930;2024-02-28T06:38:33;90.43;;;42.45;;
74833;SDS011;63361;52.384;20.930;2024-02-28T06:41:01;108.20;;;44.93;;
74833;SDS011;63361;52.384;20.930;2024-02-28T06:43:26;92.28;;;45.15;;
74833;SDS011;63361;52.384;20.930;2024-02-28T06:45:51;96.50;;;42.87;;
74833;SDS011;63361;52.384;20.930;2024-02-28T06:48:16;105.00;;;43.43;;
74833;SDS011;63361;52.384;20.930;2024-02-28T06:50:41;85.07;;;40.30;;
74833;SDS011;63361;52.384;20.930;2024-02-28T06:53:07;97.37;;;43.07;;
74833;SDS011;63361;52.384;20.930;2024-02-28T06:55:33;114.55;;;48.50;;
74833;SDS011;63361;52.384;20.930;2024-02-28T06:57:58;126.60;;;54.83;;
74833;SDS011;63361;52.384;20.930;2024-02-28T07:00:23;139.43;;;54.47;;
74833;SDS011;63361;52.384;20.930;2024-02-28T07:02:49;142.65;;;58.47;;
74833;SDS011;63361;52.384;20.930;2024-02-28T07:05:14;109.43;;;47.43;;
74833;SDS011;63361;52.384;20.930;2024-02-28T07:07:40;97.30;;;42.90;;
74833;SDS011;63361;52.384;20.930;2024-02-28T07:10:05;90.63;;;43.67;;
74833;SDS011;63361;52.384;20.930;2024-02-28T07:12:30;87.80;;;39.20;;
74833;SDS011;63361;52.384;20.930;2024-02-28T07:14:56;80.20;;;39.70;;
74833;SDS011;63361;52.384;20.930;2024-02-28T07:17:21;81.00;;;38.10;;
74833;SDS011;63361;52.384;20.930;2024-02-28T07:19:47;72.93;;;37.23;;
74833;SDS011;63361;52.384;20.930;2024-02-28T07:22:12;80.53;;;38.90;;
74833;SDS011;63361;52.384;20.930;2024-02-28T07:24:37;88.67;;;41.80;;
74833;SDS011;63361;52.384;20.930;2024-02-28T07:27:03;91.47;;;46.30;;
74833;SDS011;63361;52.384;20.930;2024-02-28T07:29:28;117.20;;;51.65;;
74833;SDS011;63361;52.384;20.930;2024-02-28T07:31:53;97.63;;;45.50;;
74833;SDS011;63361;52.384;20.930;2024-02-28T07:34:18;108.23;;;48.53;;
74833;SDS011;63361;52.384;20.930;2024-02-28T07:36:43;97.30;;;45.93;;
74833;SDS011;63361;52.384;20.930;2024-02-28T07:39:09;92.70;;;44.37;;
74833;SDS011;63361;52.384;20.930;2024-02-28T07:41:38;88.87;;;42.63;;
74833;SDS011;63361;52.384;20.930;2024-02-28T07:44:03;86.28;;;42.03;;
74833;SDS011;63361;52.384;20.930;2024-02-28T07:46:28;86.83;;;43.70;;
74833;SDS011;63361;52.384;20.930;2024-02-28T07:48:54;82.65;;;44.65;;
74833;SDS011;63361;52.384;20.930;2024-02-28T07:51:19;80.40;;;42.77;;
74833;SDS011;63361;52.384;20.930;2024-02-28T07:53:45;77.67;;;43.50;;
74833;SDS011;63361;52.384;20.930;2024-02-28T07:56:18;77.60;;;42.45;;
74833;SDS011;63361;52.384;20.930;2024-02-28T07:58:43;77.60;;;40.08;;
74833;SDS011;63361;52.384;20.930;2024-02-28T08:01:08;73.83;;;38.87;;
74833;SDS011;63361;52.384;20.930;2024-02-28T08:03:34;72.90;;;38.70;;
74833;SDS011;63361;52.384;20.930;2024-02-28T08:06:00;73.17;;;38.97;;
74833;SDS011;63361;52.384;20.930;2024-02-28T08:08:25;70.43;;;37.30;;
74833;SDS011;63361;52.384;20.930;2024-02-28T08:10:50;71.70;;;37.53;;
74833;SDS011;63361;52.384;20.930;2024-02-28T08:13:17;74.27;;;38.30;;
74833;SDS011;63361;52.384;20.930;2024-02-28T08:15:43;74.70;;;39.57;;
74833;SDS011;63361;52.384;20.930;2024-02-28T08:18:08;80.00;;;39.80;;
74833;SDS011;63361;52.384;20.930;2024-02-28T08:20:34;73.05;;;39.38;;
74833;SDS011;63361;52.384;20.930;2024-02-28T08:23:00;76.82;;;42.95;;
74833;SDS011;63361;52.384;20.930;2024-02-28T08:25:26;76.10;;;39.60;;
74833;SDS011;63361;52.384;20.930;2024-02-28T08:27:51;79.27;;;41.60;;
74833;SDS011;63361;52.384;20.930;2024-02-28T08:30:16;75.73;;;40.50;;
74833;SDS011;63361;52.384;20.930;2024-02-28T08:32:41;80.00;;;41.47;;
74833;SDS011;63361;52.384;20.930;2024-02-28T08:35:08;76.37;;;40.57;;
74833;SDS011;63361;52.384;20.930;2024-02-28T08:37:33;77.65;;;41.92;;
74833;SDS011;63361;52.384;20.930;2024-02-28T08:39:58;77.00;;;41.03;;
74833;SDS011;63361;52.384;20.930;2024-02-28T08:42:26;77.17;;;42.03;;
74833;SDS011;63361;52.384;20.930;2024-02-28T08:44:52;73.30;;;41.10;;
74833;SDS011;63361;52.384;20.930;2024-02-28T08:47:22;77.03;;;41.28;;
74833;SDS011;63361;52.384;20.930;2024-02-28T08:49:48;79.35;;;42.35;;
74833;SDS011;63361;52.384;20.930;2024-02-28T08:52:13;80.83;;;42.13;;
74833;SDS011;63361;52.384;20.930;2024-02-28T08:54:38;80.73;;;40.87;;
74833;SDS011;63361;52.384;20.930;2024-02-28T08:57:04;80.90;;;42.57;;
74833;SDS011;63361;52.384;20.930;2024-02-28T08:59:29;78.67;;;42.70;;
74833;SDS011;63361;52.384;20.930;2024-02-28T09:01:54;81.50;;;43.97;;
74833;SDS011;63361;52.384;20.930;2024-02-28T09:04:20;81.97;;;43.77;;
74833;SDS011;63361;52.384;20.930;2024-02-28T09:06:46;82.07;;;44.08;;
74833;SDS011;63361;52.384;20.930;2024-02-28T09:09:11;81.77;;;43.30;;
74833;SDS011;63361;52.384;20.930;2024-02-28T09:11:36;82.07;;;42.60;;
74833;SDS011;63361;52.384;20.930;2024-02-28T09:14:01;78.77;;;41.70;;
74833;SDS011;63361;52.384;20.930;2024-02-28T09:16:27;78.93;;;40.17;;
74833;SDS011;63361;52.384;20.930;2024-02-28T09:18:52;71.23;;;39.27;;
74833;SDS011;63361;52.384;20.930;2024-02-28T09:21:17;75.77;;;40.83;;
74833;SDS011;63361;52.384;20.930;2024-02-28T09:23:42;72.03;;;39.50;;
74833;SDS011;63361;52.384;20.930;2024-02-28T09:26:08;75.53;;;40.03;;
74833;SDS011;63361;52.384;20.930;2024-02-28T09:28:33;70.13;;;38.27;;
74833;SDS011;63361;52.384;20.930;2024-02-28T09:30:58;70.32;;;39.78;;
74833;SDS011;63361;52.384;20.930;2024-02-28T09:33:24;72.73;;;38.33;;
74833;SDS011;63361;52.384;20.930;2024-02-28T09:35:49;70.60;;;39.17;;
74833;SDS011;63361;52.384;20.930;2024-02-28T09:38:14;66.67;;;39.23;;
74833;SDS011;63361;52.384;20.930;2024-02-28T09:40:39;71.20;;;38.27;;
74833;SDS011;63361;52.384;20.930;2024-02-28T09:43:05;72.80;;;37.37;;
74833;SDS011;63361;52.384;20.930;2024-02-28T09:45:30;73.30;;;38.10;;
74833;SDS011;63361;52.384;20.930;2024-02-28T09:47:58;70.93;;;37.10;;
74833;SDS011;63361;52.384;20.930;2024-02-28T09:50:23;71.22;;;38.28;;
74833;SDS011;63361;52.384;20.930;2024-02-28T09:52:50;70.13;;;38.15;;
74833;SDS011;63361;52.384;20.930;2024-02-28T09:55:15;80.57;;;41.57;;
74833;SDS011;63361;52.384;20.930;2024-02-28T09:57:40;83.33;;;43.73;;
74833;SDS011;63361;52.384;20.930;2024-02-28T10:00:06;76.17;;;39.63;;
74833;SDS011;63361;52.384;20.930;2024-02-28T10:02:32;75.40;;;40.90;;
74833;SDS011;63361;52.384;20.930;2024-02-28T10:04:58;75.78;;;41.10;;
74833;SDS011;63361;52.384;20.930;2024-02-28T10:07:25;85.13;;;39.70;;
74833;SDS011;63361;52.384;20.930;2024-02-28T10:09:50;76.93;;;40.75;;
74833;SDS011;63361;52.384;20.930;2024-02-28T10:12:15;80.60;;;41.17;;
74833;SDS011;63361;52.384;20.930;2024-02-28T10:14:41;75.53;;;39.80;;
74833;SDS011;63361;52.384;20.930;2024-02-28T10:17:06;77.50;;;38.87;;
74833;SDS011;63361;52.384;20.930;2024-02-28T10:19:33;76.40;;;38.80;;
74833;SDS011;63361;52.384;20.930;2024-02-28T10:21:58;71.13;;;37.83;;
74833;SDS011;63361;52.384;20.930;2024-02-28T10:24:23;75.40;;;39.77;;
74833;SDS011;63361;52.384;20.930;2024-02-28T10:26:49;80.20;;;41.27;;
74833;SDS011;63361;52.384;20.930;2024-02-28T10:29:20;80.15;;;41.42;;
74833;SDS011;63361;52.384;20.930;2024-02-28T10:31:45;92.97;;;41.10;;
74833;SDS011;63361;52.384;20.930;2024-02-28T10:34:11;83.43;;;41.42;;
74833;SDS011;63361;52.384;20.930;2024-02-28T10:36:36;77.70;;;39.40;;
74833;SDS011;63361;52.384;20.930;2024-02-28T10:39:02;84.30;;;39.70;;
74833;SDS011;63361;52.384;20.930;2024-02-28T10:41:28;88.60;;;42.47;;
74833;SDS011;63361;52.384;20.930;2024-02-28T10:43:54;84.05;;;42.00;;
74833;SDS011;63361;52.384;20.930;2024-02-28T10:46:22;83.13;;;40.93;;
74833;SDS011;63361;52.384;20.930;2024-02-28T10:48:49;86.93;;;42.53;;
74833;SDS011;63361;52.384;20.930;2024-02-28T10:51:19;80.60;;;39.47;;
74833;SDS011;63361;52.384;20.930;2024-02-28T10:53:45;84.60;;;41.20;;
74833;SDS011;63361;52.384;20.930;2024-02-28T10:56:11;78.05;;;38.67;;
74833;SDS011;63361;52.384;20.930;2024-02-28T10:58:43;77.65;;;38.40;;
74833;SDS011;63361;52.384;20.930;2024-02-28T11:01:11;80.40;;;37.60;;
74833;SDS011;63361;52.384;20.930;2024-02-28T11:03:37;81.63;;;39.72;;
74833;SDS011;63361;52.384;20.930;2024-02-28T11:06:02;79.47;;;38.07;;
74833;SDS011;63361;52.384;20.930;2024-02-28T11:08:29;78.17;;;37.00;;
74833;SDS011;63361;52.384;20.930;2024-02-28T11:10:58;78.70;;;38.33;;
74833;SDS011;63361;52.384;20.930;2024-02-28T11:13:24;78.05;;;37.47;;
74833;SDS011;63361;52.384;20.930;2024-02-28T11:15:49;78.10;;;39.60;;
74833;SDS011;63361;52.384;20.930;2024-02-28T11:18:14;79.47;;;40.13;;
74833;SDS011;63361;52.384;20.930;2024-02-28T11:20:40;81.53;;;37.63;;
74833;SDS011;63361;52.384;20.930;2024-02-28T11:23:09;79.27;;;37.63;;
74833;SDS011;63361;52.384;20.930;2024-02-28T11:25:34;79.30;;;38.05;;
74833;SDS011;63361;52.384;20.930;2024-02-28T11:28:00;74.07;;;39.17;;
74833;SDS011;63361;52.384;20.930;2024-02-28T11:30:25;77.28;;;37.88;;
74833;SDS011;63361;52.384;20.930;2024-02-28T11:32:54;81.37;;;39.03;;
74833;SDS011;63361;52.384;20.930;2024-02-28T11:35:19;84.70;;;39.50;;
74833;SDS011;63361;52.384;20.930;2024-02-28T11:37:45;86.83;;;40.13;;
74833;SDS011;63361;52.384;20.930;2024-02-28T11:40:11;72.85;;;38.50;;
74833;SDS011;63361;52.384;20.930;2024-02-28T11:42:38;76.22;;;37.65;;
74833;SDS011;63361;52.384;20.930;2024-02-28T11:45:04;78.75;;;38.85;;
74833;SDS011;63361;52.384;20.930;2024-02-28T11:47:31;74.75;;;37.05;;
74833;SDS011;63361;52.384;20.930;2024-02-28T11:49:59;70.10;;;35.30;;
74833;SDS011;63361;52.384;20.930;2024-02-28T11:52:26;71.35;;;35.08;;
74833;SDS011;63361;52.384;20.930;2024-02-28T11:54:51;64.20;;;31.53;;
74833;SDS011;63361;52.384;20.930;2024-02-28T11:57:17;59.08;;;31.15;;
74833;SDS011;63361;52.384;20.930;2024-02-28T11:59:44;61.83;;;30.83;;
74833;SDS011;63361;52.384;20.930;2024-02-28T12:02:12;60.97;;;30.60;;
74833;SDS011;63361;52.384;20.930;2024-02-28T12:04:38;58.63;;;29.23;;
74833;SDS011;63361;52.384;20.930;2024-02-28T12:07:03;60.83;;;30.03;;
74833;SDS011;63361;52.384;20.930;2024-02-28T12:09:29;61.15;;;30.27;;
74833;SDS011;63361;52.384;20.930;2024-02-28T12:11:55;57.47;;;29.47;;
74833;SDS011;63361;52.384;20.930;2024-02-28T12:14:20;59.93;;;29.00;;
74833;SDS011;63361;52.384;20.930;2024-02-28T12:16:45;60.00;;;27.77;;
74833;SDS011;63361;52.384;20.930;2024-02-28T12:19:13;50.85;;;25.20;;
74833;SDS011;63361;52.384;20.930;2024-02-28T12:21:40;54.03;;;24.55;;
74833;SDS011;63361;52.384;20.930;2024-02-28T12:24:09;54.87;;;26.17;;
74833;SDS011;63361;52.384;20.930;2024-02-28T12:26:34;54.50;;;24.65;;
74833;SDS011;63361;52.384;20.930;2024-02-28T12:29:00;57.00;;;26.13;;
74833;SDS011;63361;52.384;20.930;2024-02-28T12:31:26;51.35;;;24.50;;
74833;SDS011;63361;52.384;20.930;2024-02-28T12:33:51;58.77;;;25.20;;
74833;SDS011;63361;52.384;20.930;2024-02-28T12:36:16;49.53;;;22.67;;
74833;SDS011;63361;52.384;20.930;2024-02-28T12:38:42;48.60;;;24.00;;
74833;SDS011;63361;52.384;20.930;2024-02-28T12:41:07;51.67;;;22.73;;
74833;SDS011;63361;52.384;20.930;2024-02-28T12:43:33;48.30;;;22.00;;
74833;SDS011;63361;52.384;20.930;2024-02-28T12:45:58;52.00;;;22.37;;
74833;SDS011;63361;52.384;20.930;2024-02-28T12:48:24;48.60;;;22.10;;
74833;SDS011;63361;52.384;20.930;2024-02-28T12:50:49;48.87;;;22.37;;
74833;SDS011;63361;52.384;20.930;2024-02-28T12:53:14;45.00;;;21.30;;
74833;SDS011;63361;52.384;20.930;2024-02-28T12:55:39;45.90;;;20.03;;
74833;SDS011;63361;52.384;20.930;2024-02-28T12:58:04;42.80;;;19.63;;
74833;SDS011;63361;52.384;20.930;2024-02-28T13:00:30;43.80;;;19.53;;
74833;SDS011;63361;52.384;20.930;2024-02-28T13:02:55;45.20;;;21.37;;
74833;SDS011;63361;52.384;20.930;2024-02-28T13:05:21;45.50;;;21.20;;
74833;SDS011;63361;52.384;20.930;2024-02-28T13:07:46;45.77;;;21.90;;
74833;SDS011;63361;52.384;20.930;2024-02-28T13:10:11;45.83;;;20.57;;
74833;SDS011;63361;52.384;20.930;2024-02-28T13:12:39;45.60;;;20.10;;
74833;SDS011;63361;52.384;20.930;2024-02-28T13:15:05;53.03;;;22.43;;
74833;SDS011;63361;52.384;20.930;2024-02-28T13:17:30;47.95;;;22.08;;
74833;SDS011;63361;52.384;20.930;2024-02-28T13:19:56;47.10;;;21.30;;
74833;SDS011;63361;52.384;20.930;2024-02-28T13:22:21;45.87;;;20.67;;
74833;SDS011;63361;52.384;20.930;2024-02-28T13:24:46;45.70;;;19.97;;
74833;SDS011;63361;52.384;20.930;2024-02-28T13:27:11;48.23;;;19.63;;
74833;SDS011;63361;52.384;20.930;2024-02-28T13:29:37;44.77;;;19.37;;
74833;SDS011;63361;52.384;20.930;2024-02-28T13:32:02;49.07;;;19.03;;
74833;SDS011;63361;52.384;20.930;2024-02-28T13:34:28;44.03;;;19.50;;
74833;SDS011;63361;52.384;20.930;2024-02-28T13:36:54;48.45;;;19.58;;
74833;SDS011;63361;52.384;20.930;2024-02-28T13:39:19;50.43;;;20.37;;
74833;SDS011;63361;52.384;20.930;2024-02-28T13:41:44;52.97;;;19.50;;
74833;SDS011;63361;52.384;20.930;2024-02-28T13:44:10;50.97;;;20.10;;
74833;SDS011;63361;52.384;20.930;2024-02-28T13:46:35;53.87;;;20.63;;
74833;SDS011;63361;52.384;20.930;2024-02-28T13:49:00;53.88;;;19.40;;
74833;SDS011;63361;52.384;20.930;2024-02-28T13:51:26;53.93;;;19.90;;
74833;SDS011;63361;52.384;20.930;2024-02-28T13:53:51;54.23;;;20.77;;
74833;SDS011;63361;52.384;20.930;2024-02-28T13:56:19;57.60;;;20.40;;
74833;SDS011;63361;52.384;20.930;2024-02-28T13:58:44;58.33;;;20.27;;